Time;durP1;ratioP1;P1;durP2;ratioP2;P2;SDS_P1;SDS_P2;PMS_P1;PMS_P2;Temp;Humidity;BMP_temperature;BMP_pressure;BME280_temperature;BME280_humidity;BME280_pressure;Samples;Min_cycle;Max_cycle;Signal;HPM_P1;HPM_P2
2022/09/20 00:01:07;;;;;;;2.42;1.35;;;21.30;54.40;;;;;;5047209;28;20040;-64
2022/09/20 00:03:38;;;;;;;2.30;1.23;;;21.30;54.40;;;;;;5034458;28;20036;-64
2022/09/20 00:06:05;;;;;;;3.03;1.30;;;21.30;54.40;;;;;;5034039;28;20029;-64
2022/09/20 00:08:31;;;;;;;2.53;1.35;;;21.20;54.30;;;;;;5034333;28;20036;-64
2022/09/20 00:11:06;;;;;;;2.35;1.27;;;21.30;54.40;;;;;;5034479;28;20385;-64
2022/09/20 00:13:33;;;;;;;2.30;1.20;;;21.30;54.40;;;;;;5033790;28;20491;-64
2022/09/20 00:15:58;;;;;;;2.08;1.00;;;21.20;54.30;;;;;;5034162;28;20518;-64
2022/09/20 00:18:25;;;;;;;2.38;1.20;;;21.20;54.30;;;;;;5034325;28;20029;-64
2022/09/20 00:20:52;;;;;;;2.03;1.30;;;21.20;54.40;;;;;;5034076;28;20056;-64
2022/09/20 00:23:17;;;;;;;2.55;1.20;;;21.20;54.40;;;;;;5034211;28;20033;-64
2022/09/20 00:25:43;;;;;;;2.33;1.33;;;21.20;54.40;;;;;;5034198;28;20021;-64
2022/09/20 00:28:09;;;;;;;2.03;1.15;;;21.20;54.40;;;;;;5034105;28;20087;-64
2022/09/20 00:30:35;;;;;;;2.63;1.35;;;21.20;54.40;;;;;;5033196;28;20045;-63
2022/09/20 00:33:01;;;;;;;1.67;1.00;;;21.20;54.40;;;;;;5033986;28;20044;-64
2022/09/20 00:35:28;;;;;;;2.25;1.30;;;21.20;54.40;;;;;;5015722;28;20512;-63
2022/09/20 00:37:54;;;;;;;2.00;1.10;;;21.20;54.40;;;;;;5008446;28;20029;-64
2022/09/20 00:40:21;;;;;;;2.45;1.13;;;21.10;54.40;;;;;;5034125;28;20104;-63
2022/09/20 00:42:47;;;;;;;2.88;1.30;;;21.10;54.40;;;;;;5033353;28;20376;-62
2022/09/20 00:45:28;;;;;;;1.88;1.00;;;21.10;54.40;;;;;;5034030;28;20536;-62
2022/09/20 00:48:26;;;;;;;2.33;1.20;;;21.10;54.40;;;;;;5033206;28;20489;-62
2022/09/20 00:51:04;;;;;;;2.70;1.10;;;21.10;54.40;;;;;;4983703;28;20057;-64
2022/09/20 00:53:38;;;;;;;1.95;1.02;;;21.10;54.40;;;;;;5033134;28;20036;-64
2022/09/20 00:56:16;;;;;;;1.73;1.05;;;21.10;54.40;;;;;;5033309;28;20143;-64
2022/09/20 00:59:08;;;;;;;2.05;1.10;;;21.10;54.40;;;;;;5030699;28;20496;-64
2022/09/20 01:01:34;;;;;;;2.03;1.10;;;21.10;54.50;;;;;;5032904;28;20087;-64
2022/09/20 01:04:01;;;;;;;1.70;1.10;;;21.10;54.50;;;;;;5033780;28;20477;-64
2022/09/20 01:06:27;;;;;;;2.58;1.30;;;21.00;54.40;;;;;;5032275;28;20389;-64
2022/09/20 01:08:55;;;;;;;2.13;1.20;;;21.00;54.50;;;;;;5033103;28;20091;-62
2022/09/20 01:11:20;;;;;;;1.95;1.05;;;21.00;54.50;;;;;;5033342;28;20440;-63
2022/09/20 01:13:46;;;;;;;1.90;1.08;;;21.00;54.50;;;;;;5033478;28;20032;-63
2022/09/20 01:16:14;;;;;;;2.58;1.02;;;21.00;54.50;;;;;;5015512;28;20045;-62
2022/09/20 01:18:41;;;;;;;2.17;1.17;;;21.00;54.50;;;;;;5033507;28;20124;-63
2022/09/20 01:21:08;;;;;;;2.22;1.10;;;21.00;54.50;;;;;;5033348;28;20025;-64
2022/09/20 01:23:53;;;;;;;1.50;0.90;;;21.00;54.50;;;;;;5033234;28;20034;-64
2022/09/20 01:26:56;;;;;;;1.50;0.93;;;21.00;54.50;;;;;;5032435;28;20101;-62
2022/09/20 01:29:57;;;;;;;1.88;0.95;;;21.00;54.50;;;;;;5033117;28;20053;-62
2022/09/20 01:32:29;;;;;;;1.52;1.00;;;20.90;54.50;;;;;;4974876;28;20054;-64
2022/09/20 01:34:59;;;;;;;1.95;1.10;;;21.00;54.60;;;;;;5032957;28;20052;-64
2022/09/20 01:37:43;;;;;;;2.35;1.27;;;20.90;54.50;;;;;;5014901;28;20029;-64
2022/09/20 01:40:39;;;;;;;1.77;0.90;;;20.90;54.50;;;;;;5031937;28;20473;-64
2022/09/20 01:43:13;;;;;;;2.08;1.20;;;20.90;54.60;;;;;;5024825;28;20474;-64
2022/09/20 01:45:45;;;;;;;2.03;1.00;;;20.90;54.60;;;;;;5032875;28;20499;-64
2022/09/20 01:48:22;;;;;;;2.10;1.40;;;20.90;54.60;;;;;;5032228;28;20477;-63
2022/09/20 01:51:09;;;;;;;1.58;1.05;;;20.90;54.60;;;;;;5031656;28;20051;-62
2022/09/20 01:53:47;;;;;;;1.50;0.90;;;20.90;54.60;;;;;;5031845;28;20493;-64
2022/09/20 01:56:19;;;;;;;1.20;0.80;;;20.90;54.60;;;;;;5032657;28;20095;-64
2022/09/20 01:58:53;;;;;;;2.85;1.10;;;20.90;54.60;;;;;;5032580;28;20499;-64
2022/09/20 02:01:31;;;;;;;2.10;0.95;;;20.90;54.60;;;;;;5031979;28;20036;-63
2022/09/20 02:04:25;;;;;;;2.20;1.05;;;20.90;54.60;;;;;;5032449;28;20029;-63
2022/09/20 02:07:26;;;;;;;1.65;1.10;;;20.80;54.60;;;;;;5032078;28;20060;-64
2022/09/20 02:10:01;;;;;;;1.75;1.00;;;20.80;54.60;;;;;;5031758;28;20125;-64
2022/09/20 02:12:46;;;;;;;1.83;0.93;;;20.80;54.60;;;;;;5032347;28;20091;-62
2022/09/20 02:15:43;;;;;;;2.00;1.10;;;20.80;54.60;;;;;;5018697;28;20085;-65
2022/09/20 02:18:08;;;;;;;1.80;1.20;;;20.80;54.70;;;;;;5029868;28;20156;-64
2022/09/20 02:20:51;;;;;;;1.83;1.10;;;20.80;54.70;;;;;;5032239;28;20464;-64
2022/09/20 02:23:39;;;;;;;1.50;0.90;;;20.80;54.70;;;;;;5031776;28;20037;-64
2022/09/20 02:26:38;;;;;;;1.70;1.00;;;20.80;54.80;;;;;;5005160;28;20037;-64
2022/09/20 02:29:12;;;;;;;1.83;1.10;;;20.80;54.70;;;;;;5031598;28;20482;-63
2022/09/20 02:31:53;;;;;;;1.92;0.90;;;20.80;54.70;;;;;;5030419;28;20087;-63
2022/09/20 02:34:44;;;;;;;1.48;0.90;;;20.80;54.80;;;;;;5030901;28;20117;-64
2022/09/20 02:37:35;;;;;;;1.48;0.90;;;20.80;54.80;;;;;;5031054;28;20045;-63
2022/09/20 02:40:35;;;;;;;1.50;0.93;;;20.80;54.70;;;;;;5031026;28;20062;-62
2022/09/20 02:43:29;;;;;;;1.40;0.90;;;20.70;54.70;;;;;;5031267;28;20124;-62
2022/09/20 02:46:32;;;;;;;1.27;0.80;;;20.80;54.80;;;;;;5031522;28;20044;-62
2022/09/20 02:49:28;;;;;;;1.48;0.90;;;20.80;54.80;;;;;;5031013;28;20025;-62
2022/09/20 02:52:05;;;;;;;1.33;0.80;;;20.80;54.80;;;;;;5031450;28;20542;-64
2022/09/20 02:54:57;;;;;;;1.73;0.93;;;20.70;54.80;;;;;;5030077;28;20069;-64
2022/09/20 02:57:35;;;;;;;2.20;1.10;;;20.70;54.80;;;;;;5030629;28;20104;-64
2022/09/20 03:00:05;;;;;;;2.13;1.10;;;20.70;54.80;;;;;;5029638;28;20546;-64
2022/09/20 03:02:59;;;;;;;1.58;1.00;;;20.70;54.80;;;;;;5031240;28;20511;-64
2022/09/20 03:05:42;;;;;;;2.17;1.00;;;20.70;54.90;;;;;;5031371;28;20113;-64
2022/09/20 03:08:20;;;;;;;2.00;0.85;;;20.70;54.90;;;;;;5031544;28;20432;-64
2022/09/20 03:11:21;;;;;;;1.85;0.82;;;20.70;54.90;;;;;;5030923;28;20096;-64
2022/09/20 03:14:29;;;;;;;1.20;0.80;;;20.70;54.90;;;;;;4961036;28;20047;-64
2022/09/20 03:17:21;;;;;;;1.10;0.80;;;20.70;54.90;;;;;;4989306;28;20518;-64
2022/09/20 03:20:10;;;;;;;1.80;0.88;;;20.70;54.90;;;;;;5031035;28;20116;-64
2022/09/20 03:23:11;;;;;;;1.15;0.73;;;20.60;54.90;;;;;;5030977;28;20029;-64
2022/09/20 03:26:06;;;;;;;1.60;0.85;;;20.70;54.90;;;;;;5029700;28;20372;-64
2022/09/20 03:28:42;;;;;;;1.65;0.90;;;20.70;54.90;;;;;;5030139;28;20026;-64
2022/09/20 03:31:17;;;;;;;1.73;0.98;;;20.60;54.90;;;;;;5030072;28;20038;-64
2022/09/20 03:33:43;;;;;;;1.00;0.70;;;20.60;54.90;;;;;;5031040;28;20123;-64
2022/09/20 03:36:31;;;;;;;0.90;0.77;;;20.60;54.90;;;;;;5004844;28;20049;-64
2022/09/20 03:39:20;;;;;;;1.30;0.82;;;20.60;54.90;;;;;;5029781;28;20465;-64
2022/09/20 03:42:16;;;;;;;1.08;0.80;;;20.60;54.90;;;;;;5029842;28;20416;-64
2022/09/20 03:44:54;;;;;;;1.40;0.80;;;20.60;54.90;;;;;;5030931;28;20041;-64
2022/09/20 03:47:59;;;;;;;1.40;0.82;;;20.60;54.90;;;;;;5029170;28;20025;-64
2022/09/20 03:50:59;;;;;;;1.17;0.85;;;20.60;54.90;;;;;;5030062;28;20022;-64
2022/09/20 03:53:49;;;;;;;1.45;0.90;;;20.60;55.00;;;;;;5024812;28;20041;-64
2022/09/20 03:56:21;;;;;;;1.58;0.90;;;20.60;55.00;;;;;;5028132;28;20021;-64
2022/09/20 03:58:59;;;;;;;1.60;0.88;;;20.60;55.00;;;;;;5030750;28;20032;-64
2022/09/20 04:01:58;;;;;;;0.88;0.70;;;20.60;55.10;;;;;;5004286;28;20026;-64
2022/09/20 04:04:31;;;;;;;;;;;20.60;55.10;;;;;;5030456;28;20079;-64
2022/09/20 04:07:20;;;;;;;1.40;0.77;;;20.60;55.10;;;;;;5029868;28;19959;-64
2022/09/20 04:10:12;;;;;;;1.40;0.80;;;20.60;55.10;;;;;;5030718;28;20494;-64
2022/09/20 04:13:15;;;;;;;1.40;0.80;;;20.50;55.10;;;;;;5030541;28;20033;-64
2022/09/20 04:16:12;;;;;;;1.63;1.00;;;20.50;55.10;;;;;;5030201;28;20095;-64
2022/09/20 04:19:06;;;;;;;1.55;0.93;;;20.50;55.20;;;;;;5030079;28;20056;-64
2022/09/20 04:21:31;;;;;;;1.35;0.80;;;20.50;55.20;;;;;;5030494;28;20013;-64
2022/09/20 04:24:09;;;;;;;1.73;0.90;;;20.50;55.20;;;;;;5030604;28;20028;-64
2022/09/20 04:26:42;;;;;;;1.88;0.80;;;20.50;55.20;;;;;;5029872;28;20049;-64
2022/09/20 04:29:40;;;;;;;2.35;0.80;;;20.50;55.20;;;;;;5030882;28;20273;-64
2022/09/20 04:32:18;;;;;;;1.55;0.80;;;20.50;55.30;;;;;;5029090;28;20034;-63
2022/09/20 04:38:04;;;;;;;1.60;0.88;;;20.50;55.20;;;;;;5030515;28;20064;-64
2022/09/20 04:40:55;;;;;;;2.08;0.80;;;20.50;55.20;;;;;;5030769;28;20032;-64
2022/09/20 04:43:38;;;;;;;1.83;0.82;;;20.50;55.30;;;;;;5033370;28;20044;-64
2022/09/20 04:46:10;;;;;;;1.33;0.77;;;20.50;55.30;;;;;;5033804;28;20497;-63
2022/09/20 04:49:00;;;;;;;1.25;0.70;;;20.50;55.30;;;;;;5007653;28;20044;-64
2022/09/20 04:51:44;;;;;;;1.88;0.80;;;20.50;55.30;;;;;;5034025;28;20029;-64
2022/09/20 04:54:27;;;;;;;1.50;0.80;;;20.50;55.30;;;;;;5034078;28;20033;-64
2022/09/20 04:56:56;;;;;;;1.40;0.77;;;20.50;55.30;;;;;;5033214;28;20029;-64
2022/09/20 04:59:59;;;;;;;1.63;0.70;;;20.50;55.30;;;;;;5033840;28;20025;-64
2022/09/20 05:03:02;;;;;;;1.65;0.80;;;20.50;55.40;;;;;;5033171;28;20076;-64
2022/09/20 05:05:42;;;;;;;0.98;0.70;;;20.50;55.40;;;;;;5033214;28;20098;-63
2022/09/20 05:08:59;;;;;;;1.35;0.77;;;20.50;55.40;;;;;;5007813;28;20040;-63
2022/09/20 05:11:42;;;;;;;1.90;0.90;;;20.50;55.50;;;;;;4970237;28;20030;-63
2022/09/20 05:14:17;;;;;;;1.60;0.90;;;20.50;55.50;;;;;;5033338;28;20036;-63
2022/09/20 05:17:13;;;;;;;2.38;1.10;;;20.50;55.50;;;;;;5032767;28;20041;-64
2022/09/20 05:19:53;;;;;;;2.63;1.00;;;20.50;55.70;;;;;;5032885;28;20083;-63
2022/09/20 05:22:50;;;;;;;2.47;0.90;;;20.60;55.90;;;;;;5033184;28;20874;-64
2022/09/20 05:25:43;;;;;;;1.75;0.80;;;20.70;55.70;;;;;;5032963;28;20116;-63
2022/09/20 05:28:20;;;;;;;2.15;1.10;;;20.80;55.50;;;;;;5032991;28;20470;-63
2022/09/20 05:30:54;;;;;;;2.05;0.93;;;20.90;55.10;;;;;;5032646;28;20088;-63
2022/09/20 05:33:44;;;;;;;1.95;0.80;;;21.10;55.10;;;;;;5033072;28;20096;-63
2022/09/20 05:36:16;;;;;;;;;;;21.20;54.80;;;;;;5033493;28;20045;-64
2022/09/20 05:39:18;;;;;;;2.13;1.13;;;21.30;54.50;;;;;;5033016;28;19905;-63
2022/09/20 05:42:03;;;;;;;1.80;0.98;;;21.30;54.20;;;;;;5033225;28;20381;-63
2022/09/20 05:44:46;;;;;;;2.40;1.05;;;21.50;54.20;;;;;;5032890;28;20025;-63
2022/09/20 05:47:17;;;;;;;1.83;1.05;;;21.60;54.00;;;;;;5032674;28;20071;-63
2022/09/20 05:50:08;;;;;;;1.27;0.80;;;21.70;53.70;;;;;;5032667;28;20417;-63
2022/09/20 05:52:47;;;;;;;2.17;1.00;;;21.90;53.40;;;;;;5030359;28;20092;-63
2022/09/20 05:55:44;;;;;;;1.55;0.90;;;22.00;53.70;;;;;;5032402;28;20095;-64
2022/09/20 05:58:38;;;;;;;2.20;1.20;;;22.10;52.80;;;;;;5031708;28;20373;-63
2022/09/20 06:01:14;;;;;;;1.70;0.90;;;22.20;52.60;;;;;;5014233;28;20500;-63
2022/09/20 06:03:53;;;;;;;1.70;0.90;;;22.30;52.20;;;;;;5035795;28;20033;-63
2022/09/20 06:06:31;;;;;;;1.33;0.90;;;22.30;52.10;;;;;;5035726;28;20473;-63
2022/09/20 06:09:26;;;;;;;2.28;1.10;;;22.30;52.10;;;;;;5036110;28;20032;-63
2022/09/20 06:12:19;;;;;;;1.38;0.88;;;22.20;52.10;;;;;;5034398;28;20025;-63
2022/09/20 06:14:52;;;;;;;2.30;1.10;;;22.30;52.40;;;;;;5034545;28;20073;-64
2022/09/20 06:17:23;;;;;;;2.28;1.10;;;22.40;52.30;;;;;;5034207;28;20381;-63
2022/09/20 06:19:51;;;;;;;2.10;0.90;;;22.50;52.00;;;;;;5032840;28;20059;-63
2022/09/20 06:22:41;;;;;;;2.58;1.10;;;22.50;51.60;;;;;;5033064;28;20021;-63
2022/09/20 06:25:07;;;;;;;2.38;1.08;;;22.50;51.50;;;;;;5030662;28;20021;-63
2022/09/20 06:27:51;;;;;;;1.92;0.90;;;22.50;52.00;;;;;;5032058;28;20442;-63
2022/09/20 06:30:30;;;;;;;2.10;1.00;;;22.50;51.50;;;;;;5031470;28;20529;-63
2022/09/20 06:33:09;;;;;;;1.85;0.90;;;22.50;51.50;;;;;;5031242;28;20021;-63
2022/09/20 06:35:49;;;;;;;2.15;1.05;;;22.50;51.50;;;;;;5030131;28;20030;-63
2022/09/20 06:41:27;;;;;;;1.58;1.00;;;22.50;51.50;;;;;;4989419;28;20116;-64
2022/09/20 06:43:55;;;;;;;2.08;1.00;;;22.50;51.50;;;;;;5031821;28;20041;-63
2022/09/20 06:46:21;;;;;;;2.13;1.13;;;22.50;51.60;;;;;;5031720;28;20033;-63
2022/09/20 06:48:49;;;;;;;1.60;0.93;;;22.50;51.50;;;;;;5031690;28;20481;-63
2022/09/20 06:51:15;;;;;;;1.80;0.98;;;22.50;51.60;;;;;;5031704;28;20037;-63
2022/09/20 06:53:41;;;;;;;1.85;0.95;;;22.50;51.60;;;;;;5031643;28;20041;-64
2022/09/20 06:56:13;;;;;;;1.42;0.85;;;22.50;51.60;;;;;;5031820;28;20096;-63
2022/09/20 06:58:38;;;;;;;1.73;0.90;;;22.50;51.50;;;;;;5031531;28;20473;-64
2022/09/20 07:01:04;;;;;;;2.15;0.95;;;22.60;51.50;;;;;;5031233;28;20027;-64
2022/09/20 07:03:31;;;;;;;1.30;0.80;;;22.60;51.50;;;;;;5031579;28;20033;-63
2022/09/20 07:05:59;;;;;;;1.63;0.90;;;22.60;51.40;;;;;;5031473;28;20108;-64
2022/09/20 07:08:25;;;;;;;1.75;0.82;;;22.60;51.40;;;;;;5031131;28;20089;-64
2022/09/20 07:10:51;;;;;;;1.92;0.90;;;22.60;51.40;;;;;;5030492;28;20036;-64
2022/09/20 07:13:18;;;;;;;2.30;1.08;;;22.60;51.30;;;;;;5031136;28;20042;-63
2022/09/20 07:15:43;;;;;;;1.83;1.02;;;22.60;51.30;;;;;;5031460;28;20457;-63
2022/09/20 07:18:09;;;;;;;1.67;0.90;;;22.60;51.30;;;;;;5031284;28;20029;-63
2022/09/20 07:20:35;;;;;;;1.92;1.00;;;22.60;51.20;;;;;;5031211;28;20025;-63
2022/09/20 07:23:01;;;;;;;1.50;0.93;;;22.60;51.20;;;;;;5031249;28;20428;-64
2022/09/20 07:25:27;;;;;;;1.35;0.80;;;22.70;51.30;;;;;;5013294;28;20087;-63
2022/09/20 07:27:52;;;;;;;2.45;1.00;;;22.60;51.20;;;;;;5031123;28;20033;-64
2022/09/20 07:30:19;;;;;;;1.50;0.93;;;22.70;51.30;;;;;;5030205;28;20045;-63
2022/09/20 07:32:45;;;;;;;1.48;0.80;;;22.70;51.20;;;;;;5030938;28;20505;-63
2022/09/20 07:35:11;;;;;;;2.28;0.90;;;22.70;51.20;;;;;;5031068;28;20064;-64
2022/09/20 07:37:40;;;;;;;1.25;0.73;;;22.70;51.20;;;;;;5031045;28;20021;-63
2022/09/20 07:40:07;;;;;;;2.20;1.10;;;22.70;51.20;;;;;;5030801;28;20108;-63
2022/09/20 07:42:32;;;;;;;1.67;0.90;;;22.70;51.20;;;;;;5031103;28;20116;-64
2022/09/20 07:44:59;;;;;;;1.20;0.80;;;22.70;51.20;;;;;;5030816;28;20533;-64
2022/09/20 07:47:25;;;;;;;1.83;1.00;;;22.70;51.30;;;;;;5030913;28;20420;-63
2022/09/20 07:49:51;;;;;;;1.52;0.98;;;22.70;51.30;;;;;;5030827;28;20041;-64
2022/09/20 07:52:17;;;;;;;1.10;0.80;;;22.70;51.20;;;;;;5005098;28;20155;-62
2022/09/20 07:54:44;;;;;;;1.30;0.82;;;22.70;51.10;;;;;;5005176;28;20377;-63
2022/09/20 07:57:10;;;;;;;2.13;0.90;;;22.70;51.20;;;;;;5029943;28;20484;-63
2022/09/20 07:59:36;;;;;;;1.58;1.00;;;22.70;51.20;;;;;;5030703;28;20512;-62
2022/09/20 08:02:02;;;;;;;1.25;0.90;;;22.70;51.20;;;;;;5030174;28;20034;-63
2022/09/20 08:04:27;;;;;;;1.55;0.90;;;22.70;51.30;;;;;;5030788;28;20300;-63
2022/09/20 08:06:53;;;;;;;1.40;0.82;;;22.70;51.30;;;;;;5029378;28;20025;-62
2022/09/20 08:09:19;;;;;;;1.00;0.80;;;22.70;51.30;;;;;;5030723;28;20033;-63
2022/09/20 08:11:45;;;;;;;1.70;0.90;;;22.70;51.20;;;;;;5030624;28;20398;-63
2022/09/20 08:14:15;;;;;;;2.10;1.10;;;22.70;51.30;;;;;;5031051;28;20532;-62
2022/09/20 08:16:46;;;;;;;1.73;0.90;;;22.80;51.30;;;;;;5032801;28;20069;-63
2022/09/20 08:19:20;;;;;;;1.42;0.90;;;22.70;51.30;;;;;;5033692;28;20037;-63
2022/09/20 08:21:47;;;;;;;1.75;0.90;;;22.70;51.30;;;;;;5033246;28;20107;-62
2022/09/20 08:24:15;;;;;;;1.25;0.90;;;22.80;51.40;;;;;;5034489;28;21105;-62
2022/09/20 08:26:41;;;;;;;1.52;0.90;;;22.70;51.40;;;;;;5034164;28;20029;-63
2022/09/20 08:29:07;;;;;;;1.25;0.80;;;22.70;51.50;;;;;;5033577;28;20428;-62
2022/09/20 08:31:35;;;;;;;1.75;1.00;;;22.70;51.60;;;;;;5033384;28;20041;-63
2022/09/20 08:34:05;;;;;;;2.20;1.10;;;22.70;51.50;;;;;;5033941;28;20152;-63
2022/09/20 08:36:32;;;;;;;2.10;1.00;;;22.70;51.40;;;;;;5034086;28;20029;-62
2022/09/20 08:38:58;;;;;;;1.65;1.00;;;22.70;51.40;;;;;;5032530;28;20036;-62
2022/09/20 08:41:32;;;;;;;1.60;0.90;;;22.80;51.50;;;;;;5034008;28;20474;-63
2022/09/20 08:44:02;;;;;;;1.90;0.88;;;22.70;51.50;;;;;;5033626;28;20025;-63
2022/09/20 08:46:40;;;;;;;1.55;0.98;;;22.70;51.50;;;;;;5034016;28;20105;-63
2022/09/20 08:49:09;;;;;;;1.30;1.00;;;22.80;51.40;;;;;;5033826;28;20448;-63
2022/09/20 08:51:38;;;;;;;2.15;1.17;;;22.80;51.30;;;;;;5032930;28;20072;-63
2022/09/20 08:54:15;;;;;;;1.85;1.10;;;22.90;51.30;;;;;;5032550;28;20087;-63
2022/09/20 08:56:41;;;;;;;1.27;0.82;;;23.00;51.20;;;;;;5033809;28;20030;-63
2022/09/20 08:59:14;;;;;;;1.58;0.88;;;23.00;51.00;;;;;;5033734;28;20036;-63
2022/09/20 09:01:40;;;;;;;2.38;0.90;;;23.10;50.90;;;;;;5033199;28;20087;-63
2022/09/20 09:04:23;;;;;;;1.10;0.80;;;23.20;50.90;;;;;;5033661;28;20481;-63
2022/09/20 09:06:51;;;;;;;1.65;0.90;;;23.20;50.80;;;;;;5033585;28;20489;-63
2022/09/20 09:09:23;;;;;;;1.33;0.80;;;23.30;50.70;;;;;;5033559;28;20451;-63
2022/09/20 09:11:50;;;;;;;1.55;0.90;;;23.30;50.60;;;;;;5033508;28;20025;-63
2022/09/20 09:17:13;;;;;;;1.58;0.88;;;23.30;50.70;;;;;;5032498;28;20131;-63
2022/09/20 09:19:47;;;;;;;1.98;0.85;;;23.30;50.80;;;;;;5033404;28;20025;-63
2022/09/20 09:22:22;;;;;;;1.52;0.80;;;23.20;50.80;;;;;;5033283;28;20044;-62
2022/09/20 09:25:08;;;;;;;2.17;0.93;;;23.30;50.80;;;;;;5033168;28;20021;-62
2022/09/20 09:27:34;;;;;;;1.70;0.82;;;23.20;50.80;;;;;;5031777;28;20034;-62
2022/09/20 09:30:00;;;;;;;2.08;0.90;;;23.30;51.00;;;;;;5033080;28;20041;-62
2022/09/20 09:32:29;;;;;;;1.50;0.90;;;23.20;51.00;;;;;;5032844;28;20038;-62
2022/09/20 09:34:56;;;;;;;1.35;0.80;;;23.20;51.00;;;;;;5032857;28;20124;-62
2022/09/20 09:37:24;;;;;;;1.17;0.70;;;23.20;51.10;;;;;;5030846;28;20057;-62
2022/09/20 09:40:15;;;;;;;2.63;0.80;;;23.30;51.00;;;;;;5033147;28;20167;-62
2022/09/20 09:42:51;;;;;;;2.00;0.80;;;23.20;50.90;;;;;;5032323;28;20072;-62
2022/09/20 09:45:29;;;;;;;1.20;0.80;;;23.20;51.00;;;;;;5032534;28;20064;-62
2022/09/20 09:47:56;;;;;;;1.58;1.00;;;23.20;51.00;;;;;;5032808;28;20493;-62
2022/09/20 09:50:27;;;;;;;1.88;0.90;;;23.20;51.10;;;;;;5032571;28;20418;-63
2022/09/20 09:53:01;;;;;;;2.53;0.80;;;23.20;51.10;;;;;;5006169;28;20030;-62
2022/09/20 09:55:52;;;;;;;1.40;0.88;;;23.20;51.10;;;;;;5032243;28;20022;-62
2022/09/20 09:58:33;;;;;;;1.60;0.80;;;23.20;51.20;;;;;;5032207;28;20468;-62
2022/09/20 10:01:04;;;;;;;2.28;0.80;;;23.20;51.20;;;;;;5032224;28;20489;-62
2022/09/20 10:03:48;;;;;;;1.50;0.82;;;23.20;51.30;;;;;;5032379;28;20572;-62
2022/09/20 10:06:35;;;;;;;1.60;0.90;;;23.20;51.30;;;;;;5031208;28;20033;-62
2022/09/20 10:09:27;;;;;;;1.70;0.80;;;23.20;51.30;;;;;;5030422;28;20090;-65
2022/09/20 10:12:14;;;;;;;1.63;1.02;;;23.20;51.30;;;;;;5027212;28;20517;-65
2022/09/20 10:15:09;;;;;;;1.13;0.70;;;23.20;51.30;;;;;;5030281;28;20471;-65
2022/09/20 10:17:50;;;;;;;1.20;0.77;;;23.20;51.30;;;;;;5031066;28;20406;-64
2022/09/20 10:20:45;;;;;;;1.58;0.80;;;23.20;51.30;;;;;;5032264;28;20496;-64
2022/09/20 10:23:36;;;;;;;1.55;0.90;;;23.20;51.30;;;;;;5031013;28;20064;-64
2022/09/20 10:26:05;;;;;;;1.27;0.80;;;23.10;51.20;;;;;;5031322;28;20061;-64
2022/09/20 10:28:47;;;;;;;;;;;23.20;51.30;;;;;;5032183;28;20025;-64
2022/09/20 10:31:40;;;;;;;1.48;0.80;;;23.10;51.20;;;;;;5031694;28;20355;-64
2022/09/20 10:34:18;;;;;;;1.70;1.00;;;23.10;51.20;;;;;;5031671;28;20026;-64
2022/09/20 10:36:54;;;;;;;1.75;0.80;;;23.10;51.20;;;;;;5030973;28;20029;-64
2022/09/20 10:39:26;;;;;;;1.40;0.90;;;23.10;51.30;;;;;;5013374;28;20416;-64
2022/09/20 10:45:06;;;;;;;1.50;0.80;;;23.10;51.40;;;;;;5031719;28;20167;-64
2022/09/20 10:48:11;;;;;;;1.52;0.90;;;23.10;51.50;;;;;;5031400;28;20049;-64
2022/09/20 10:51:24;;;;;;;1.48;0.90;;;23.10;51.40;;;;;;5028690;28;20036;-64
2022/09/20 10:53:56;;;;;;;1.55;0.90;;;23.10;51.40;;;;;;5031189;28;20032;-64
2022/09/20 10:56:38;;;;;;;1.20;0.88;;;23.10;51.40;;;;;;5031385;28;20553;-64
2022/09/20 10:59:10;;;;;;;1.35;0.90;;;23.10;51.50;;;;;;5031339;28;20021;-64
2022/09/20 11:02:00;;;;;;;1.52;0.80;;;23.10;51.50;;;;;;5030221;28;20041;-64
2022/09/20 11:04:47;;;;;;;1.10;0.80;;;23.10;52.10;;;;;;5029507;28;20168;-64
2022/09/20 11:07:28;;;;;;;1.48;0.90;;;23.10;51.60;;;;;;5028192;28;20021;-63
2022/09/20 11:10:06;;;;;;;2.08;1.00;;;23.10;51.60;;;;;;5030732;28;20393;-64
2022/09/20 11:12:42;;;;;;;1.83;1.00;;;23.10;51.60;;;;;;5028875;28;20629;-64
2022/09/20 11:15:22;;;;;;;1.83;0.88;;;23.10;51.60;;;;;;5029305;28;20037;-64
2022/09/20 11:18:22;;;;;;;1.52;0.90;;;23.10;51.60;;;;;;5030298;28;20021;-64
2022/09/20 11:20:56;;;;;;;;;;;23.10;51.60;;;;;;5021611;28;20084;-64
2022/09/20 11:24:00;;;;;;;1.95;1.27;;;23.10;51.60;;;;;;5030268;28;19905;-63
2022/09/20 11:26:37;;;;;;;1.88;1.00;;;23.10;51.70;;;;;;4988637;28;20045;-63
2022/09/20 11:29:43;;;;;;;2.13;0.80;;;23.10;51.80;;;;;;5030395;28;20032;-64
2022/09/20 11:32:12;;;;;;;1.38;0.80;;;23.10;51.90;;;;;;5028312;28;20032;-64
2022/09/20 11:34:52;;;;;;;1.40;0.90;;;23.10;52.30;;;;;;5029990;28;20032;-64
2022/09/20 11:37:19;;;;;;;2.28;1.10;;;23.20;51.70;;;;;;5030135;28;20033;-63
2022/09/20 11:39:52;;;;;;;2.40;1.17;;;23.20;51.60;;;;;;5030596;28;20031;-63
2022/09/20 11:42:22;;;;;;;2.97;1.10;;;23.30;51.50;;;;;;5027912;28;20027;-64
2022/09/20 11:44:49;;;;;;;2.33;1.00;;;23.40;51.40;;;;;;5030952;28;20545;-64
2022/09/20 11:47:40;;;;;;;1.67;1.00;;;23.40;51.30;;;;;;5030571;28;20029;-64
2022/09/20 11:50:35;;;;;;;2.83;0.98;;;23.50;51.30;;;;;;5029332;28;20068;-63
2022/09/20 11:53:26;;;;;;;2.92;1.30;;;23.50;51.10;;;;;;5031064;28;20513;-63
2022/09/20 11:56:17;;;;;;;2.30;1.00;;;23.60;51.00;;;;;;5030706;28;20437;-64
2022/09/20 11:59:08;;;;;;;2.85;1.08;;;23.70;51.10;;;;;;5030772;28;20030;-63
2022/09/20 12:01:36;;;;;;;1.73;0.90;;;23.70;51.00;;;;;;5029226;28;20033;-64
2022/09/20 12:04:16;;;;;;;2.25;1.17;;;23.70;50.90;;;;;;5028968;28;20049;-63
2022/09/20 12:06:42;;;;;;;2.38;1.10;;;23.80;50.80;;;;;;5030055;28;20056;-64
2022/09/20 12:09:34;;;;;;;2.63;1.00;;;23.90;50.80;;;;;;5030885;28;20466;-64
2022/09/20 12:12:22;;;;;;;2.50;1.10;;;23.90;50.70;;;;;;5029660;28;20037;-63
2022/09/20 12:15:00;;;;;;;1.95;1.00;;;23.90;50.60;;;;;;5030273;28;20425;-63
2022/09/20 12:17:48;;;;;;;2.22;1.00;;;24.00;50.60;;;;;;5030208;28;20116;-63
2022/09/20 12:20:34;;;;;;;2.17;1.10;;;24.00;50.40;;;;;;5030630;28;20075;-63
2022/09/20 12:23:41;;;;;;;2.33;1.00;;;24.00;50.40;;;;;;5030492;28;20493;-63
2022/09/20 12:26:09;;;;;;;2.10;1.10;;;24.00;50.40;;;;;;5028673;28;20047;-64
2022/09/20 12:29:03;;;;;;;2.13;1.10;;;23.90;50.40;;;;;;5030336;28;20021;-65
2022/09/20 12:31:30;;;;;;;3.53;1.10;;;23.90;50.40;;;;;;5024937;28;20137;-65
2022/09/20 12:33:58;;;;;;;2.40;1.33;;;23.90;50.50;;;;;;5030486;28;20018;-63
2022/09/20 12:36:26;;;;;;;2.45;1.13;;;23.90;50.50;;;;;;5029715;28;20021;-65
2022/09/20 12:39:09;;;;;;;2.28;1.10;;;23.90;51.00;;;;;;5030419;28;20014;-65
2022/09/20 12:41:47;;;;;;;2.50;1.10;;;23.90;50.50;;;;;;5030383;28;20742;-65
2022/09/20 12:44:38;;;;;;;2.97;1.00;;;23.80;50.50;;;;;;5029579;28;20030;-65
2022/09/20 12:47:08;;;;;;;2.55;1.10;;;23.80;50.50;;;;;;5028879;28;20025;-64
2022/09/20 12:52:56;;;;;;;2.05;1.10;;;23.80;50.60;;;;;;5029865;28;20103;-64
2022/09/20 12:55:42;;;;;;;2.78;1.10;;;23.80;50.60;;;;;;5029156;28;20178;-64
2022/09/20 12:58:14;;;;;;;2.67;1.27;;;23.70;50.60;;;;;;5028007;28;20021;-65
2022/09/20 13:00:56;;;;;;;3.10;1.13;;;23.70;50.60;;;;;;5029808;28;20040;-64
2022/09/20 13:03:39;;;;;;;2.38;1.17;;;23.70;50.70;;;;;;5031682;28;20052;-63
2022/09/20 13:06:05;;;;;;;3.00;1.20;;;23.70;50.80;;;;;;5033592;28;20481;-63
2022/09/20 13:08:42;;;;;;;2.22;1.20;;;23.70;50.80;;;;;;5033588;28;20071;-64
2022/09/20 13:11:38;;;;;;;1.83;1.10;;;23.70;50.80;;;;;;5033090;28;20543;-64
2022/09/20 13:14:06;;;;;;;3.10;1.20;;;23.70;50.80;;;;;;5032429;28;20132;-63
2022/09/20 13:16:38;;;;;;;2.70;1.20;;;23.70;50.80;;;;;;5022978;28;20132;-65
2022/09/20 13:19:19;;;;;;;3.17;1.27;;;23.70;50.80;;;;;;5033566;28;20021;-64
2022/09/20 13:22:02;;;;;;;2.00;1.05;;;23.70;50.80;;;;;;5031476;28;20109;-63
2022/09/20 13:24:38;;;;;;;3.05;1.35;;;23.70;50.90;;;;;;5032843;28;20030;-64
2022/09/20 13:27:27;;;;;;;2.88;1.10;;;23.60;50.90;;;;;;5032798;28;20044;-64
2022/09/20 13:29:54;;;;;;;3.03;1.23;;;23.60;50.90;;;;;;5031590;28;20069;-63
2022/09/20 13:32:27;;;;;;;4.25;1.30;;;23.70;51.00;;;;;;5032006;28;20037;-63
2022/09/20 13:35:11;;;;;;;2.08;1.00;;;23.60;51.00;;;;;;5031906;28;20041;-63
2022/09/20 13:37:42;;;;;;;1.95;0.90;;;23.70;51.20;;;;;;5031581;28;20461;-61
2022/09/20 13:40:32;;;;;;;2.00;0.90;;;23.70;51.10;;;;;;5031979;28;20148;-64
2022/09/20 13:43:00;;;;;;;2.38;0.80;;;23.80;51.00;;;;;;5032267;28;20102;-64
2022/09/20 13:45:27;;;;;;;3.10;1.00;;;23.90;51.00;;;;;;5032383;28;20021;-65
2022/09/20 13:47:56;;;;;;;2.33;0.80;;;23.90;50.90;;;;;;5032377;28;20073;-65
2022/09/20 13:50:25;;;;;;;2.00;0.90;;;24.00;50.70;;;;;;5031696;28;20018;-65
2022/09/20 13:53:02;;;;;;;1.37;0.73;;;24.10;50.60;;;;;;5031589;28;20029;-65
2022/09/20 13:55:34;;;;;;;1.67;0.90;;;24.10;50.60;;;;;;5032726;28;20259;-65
2022/09/20 13:58:04;;;;;;;2.45;0.93;;;24.20;50.40;;;;;;5032563;28;20461;-64
2022/09/20 14:00:30;;;;;;;2.10;1.05;;;24.20;50.20;;;;;;5031409;28;20029;-64